sensor_id;sensor_type;location;lat;lon;timestamp;P1;durP1;ratioP1;P2;durP2;ratioP2
14235;SDS011;7202;50.718;7.072;2022-11-04T00:01:50;1.23;;;0.60;;
14235;SDS011;7202;50.718;7.072;2022-11-04T00:04:20;2.28;;;0.70;;
14235;SDS011;7202;50.718;7.072;2022-11-04T00:06:49;1.00;;;0.60;;
14235;SDS011;7202;50.718;7.072;2022-11-04T00:09:22;1.40;;;0.82;;
14235;SDS011;7202;50.718;7.072;2022-11-04T00:11:52;1.63;;;0.90;;
14235;SDS011;7202;50.718;7.072;2022-11-04T00:14:38;1.42;;;0.70;;
14235;SDS011;7202;50.718;7.072;2022-11-04T00:17:07;1.13;;;0.80;;
14235;SDS011;7202;50.718;7.072;2022-11-04T00:19:48;0.93;;;0.60;;
14235;SDS011;7202;50.718;7.072;2022-11-04T00:22:35;1.83;;;0.93;;
14235;SDS011;7202;50.718;7.072;2022-11-04T00:25:24;0.88;;;0.75;;
14235;SDS011;7202;50.718;7.072;2022-11-04T00:28:11;0.95;;;0.70;;
14235;SDS011;7202;50.718;7.072;2022-11-04T00:30:59;1.27;;;0.85;;
14235;SDS011;7202;50.718;7.072;2022-11-04T00:33:49;0.85;;;0.75;;
14235;SDS011;7202;50.718;7.072;2022-11-04T00:36:18;1.20;;;0.65;;
14235;SDS011;7202;50.718;7.072;2022-11-04T00:38:47;2.22;;;0.70;;
14235;SDS011;7202;50.718;7.072;2022-11-04T00:41:17;1.42;;;0.82;;
14235;SDS011;7202;50.718;7.072;2022-11-04T00:43:57;1.15;;;0.60;;
14235;SDS011;7202;50.718;7.072;2022-11-04T00:46:26;1.80;;;0.70;;
14235;SDS011;7202;50.718;7.072;2022-11-04T00:48:56;0.90;;;0.60;;
14235;SDS011;7202;50.718;7.072;2022-11-04T00:51:25;2.92;;;1.10;;
14235;SDS011;7202;50.718;7.072;2022-11-04T00:53:54;1.48;;;0.82;;
14235;SDS011;7202;50.718;7.072;2022-11-04T00:56:25;0.85;;;0.75;;
14235;SDS011;7202;50.718;7.072;2022-11-04T00:58:54;1.25;;;0.80;;
14235;SDS011;7202;50.718;7.072;2022-11-04T01:01:23;1.08;;;0.75;;
14235;SDS011;7202;50.718;7.072;2022-11-04T01:03:52;0.90;;;0.70;;
14235;SDS011;7202;50.718;7.072;2022-11-04T01:06:21;2.40;;;0.90;;
14235;SDS011;7202;50.718;7.072;2022-11-04T01:08:54;1.23;;;0.70;;
14235;SDS011;7202;50.718;7.072;2022-11-04T01:11:23;0.73;;;0.70;;
14235;SDS011;7202;50.718;7.072;2022-11-04T01:13:55;0.80;;;0.80;;
14235;SDS011;7202;50.718;7.072;2022-11-04T01:16:24;0.95;;;0.80;;
14235;SDS011;7202;50.718;7.072;2022-11-04T01:18:58;1.10;;;0.80;;
14235;SDS011;7202;50.718;7.072;2022-11-04T01:21:28;0.75;;;0.65;;
14235;SDS011;7202;50.718;7.072;2022-11-04T01:23:58;0.80;;;0.70;;
14235;SDS011;7202;50.718;7.072;2022-11-04T01:26:27;0.60;;;0.60;;
14235;SDS011;7202;50.718;7.072;2022-11-04T01:28:57;1.67;;;0.80;;
14235;SDS011;7202;50.718;7.072;2022-11-04T01:31:27;1.02;;;0.80;;
14235;SDS011;7202;50.718;7.072;2022-11-04T01:33:57;0.70;;;0.50;;
14235;SDS011;7202;50.718;7.072;2022-11-04T01:36:27;1.98;;;0.90;;
14235;SDS011;7202;50.718;7.072;2022-11-04T01:38:56;1.52;;;0.60;;
14235;SDS011;7202;50.718;7.072;2022-11-04T01:41:25;0.60;;;0.60;;
14235;SDS011;7202;50.718;7.072;2022-11-04T01:43:56;3.28;;;0.90;;
14235;SDS011;7202;50.718;7.072;2022-11-04T01:46:28;0.95;;;0.70;;
14235;SDS011;7202;50.718;7.072;2022-11-04T01:49:03;1.00;;;0.68;;
14235;SDS011;7202;50.718;7.072;2022-11-04T01:51:41;0.70;;;0.70;;
14235;SDS011;7202;50.718;7.072;2022-11-04T01:54:11;1.02;;;0.73;;
14235;SDS011;7202;50.718;7.072;2022-11-04T01:56:41;0.52;;;0.52;;
14235;SDS011;7202;50.718;7.072;2022-11-04T01:59:14;2.10;;;0.85;;
14235;SDS011;7202;50.718;7.072;2022-11-04T02:01:47;0.80;;;0.80;;
14235;SDS011;7202;50.718;7.072;2022-11-04T02:04:16;1.67;;;0.75;;
14235;SDS011;7202;50.718;7.072;2022-11-04T02:06:54;1.38;;;0.70;;
14235;SDS011;7202;50.718;7.072;2022-11-04T02:09:25;0.50;;;0.50;;
14235;SDS011;7202;50.718;7.072;2022-11-04T02:11:56;0.70;;;0.70;;
14235;SDS011;7202;50.718;7.072;2022-11-04T02:14:44;5.85;;;0.70;;
14235;SDS011;7202;50.718;7.072;2022-11-04T02:17:19;1.35;;;0.60;;
14235;SDS011;7202;50.718;7.072;2022-11-04T02:20:10;2.20;;;0.73;;
14235;SDS011;7202;50.718;7.072;2022-11-04T02:26:25;1.17;;;0.60;;
14235;SDS011;7202;50.718;7.072;2022-11-04T02:29:23;0.95;;;0.75;;
14235;SDS011;7202;50.718;7.072;2022-11-04T02:31:59;2.88;;;0.77;;
14235;SDS011;7202;50.718;7.072;2022-11-04T02:34:36;1.60;;;0.70;;
14235;SDS011;7202;50.718;7.072;2022-11-04T02:37:12;0.75;;;0.60;;
14235;SDS011;7202;50.718;7.072;2022-11-04T02:39:47;1.70;;;0.85;;
14235;SDS011;7202;50.718;7.072;2022-11-04T02:42:21;1.30;;;0.65;;
14235;SDS011;7202;50.718;7.072;2022-11-04T02:45:01;2.22;;;0.90;;
14235;SDS011;7202;50.718;7.072;2022-11-04T02:47:41;1.58;;;0.88;;
14235;SDS011;7202;50.718;7.072;2022-11-04T02:50:13;3.42;;;1.10;;
14235;SDS011;7202;50.718;7.072;2022-11-04T02:52:50;4.00;;;1.08;;
14235;SDS011;7202;50.718;7.072;2022-11-04T02:55:24;1.77;;;0.77;;
14235;SDS011;7202;50.718;7.072;2022-11-04T02:57:57;1.40;;;0.85;;
14235;SDS011;7202;50.718;7.072;2022-11-04T03:00:29;2.25;;;0.90;;
14235;SDS011;7202;50.718;7.072;2022-11-04T03:02:59;1.88;;;0.80;;
14235;SDS011;7202;50.718;7.072;2022-11-04T03:05:33;1.05;;;0.80;;
14235;SDS011;7202;50.718;7.072;2022-11-04T03:08:05;3.50;;;0.90;;
14235;SDS011;7202;50.718;7.072;2022-11-04T03:10:40;2.35;;;0.80;;
14235;SDS011;7202;50.718;7.072;2022-11-04T03:13:13;3.28;;;0.85;;
14235;SDS011;7202;50.718;7.072;2022-11-04T03:15:47;3.88;;;0.85;;
14235;SDS011;7202;50.718;7.072;2022-11-04T03:18:21;2.85;;;0.80;;
14235;SDS011;7202;50.718;7.072;2022-11-04T03:20:55;3.00;;;1.00;;
14235;SDS011;7202;50.718;7.072;2022-11-04T03:23:25;3.55;;;1.10;;
14235;SDS011;7202;50.718;7.072;2022-11-04T03:25:55;2.20;;;0.90;;
14235;SDS011;7202;50.718;7.072;2022-11-04T03:28:30;3.10;;;0.93;;
14235;SDS011;7202;50.718;7.072;2022-11-04T03:31:07;5.90;;;1.00;;
14235;SDS011;7202;50.718;7.072;2022-11-04T03:33:42;1.73;;;1.02;;
14235;SDS011;7202;50.718;7.072;2022-11-04T03:36:15;3.63;;;1.05;;
14235;SDS011;7202;50.718;7.072;2022-11-04T03:38:44;2.10;;;0.60;;
14235;SDS011;7202;50.718;7.072;2022-11-04T03:41:14;4.72;;;1.10;;
14235;SDS011;7202;50.718;7.072;2022-11-04T03:43:47;1.27;;;0.90;;
14235;SDS011;7202;50.718;7.072;2022-11-04T03:46:17;3.67;;;1.00;;
14235;SDS011;7202;50.718;7.072;2022-11-04T03:48:49;0.90;;;0.70;;
14235;SDS011;7202;50.718;7.072;2022-11-04T03:51:19;2.58;;;0.98;;
14235;SDS011;7202;50.718;7.072;2022-11-04T03:53:47;1.30;;;0.75;;
14235;SDS011;7202;50.718;7.072;2022-11-04T03:56:23;1.95;;;1.10;;
14235;SDS011;7202;50.718;7.072;2022-11-04T03:59:09;1.83;;;1.00;;
14235;SDS011;7202;50.718;7.072;2022-11-04T04:01:53;3.83;;;0.70;;
14235;SDS011;7202;50.718;7.072;2022-11-04T04:04:27;2.42;;;0.98;;
14235;SDS011;7202;50.718;7.072;2022-11-04T04:07:00;3.05;;;1.10;;
14235;SDS011;7202;50.718;7.072;2022-11-04T04:09:35;2.20;;;0.90;;
14235;SDS011;7202;50.718;7.072;2022-11-04T04:12:09;2.13;;;1.00;;
14235;SDS011;7202;50.718;7.072;2022-11-04T04:14:41;3.25;;;1.13;;
14235;SDS011;7202;50.718;7.072;2022-11-04T04:17:16;6.53;;;1.67;;
14235;SDS011;7202;50.718;7.072;2022-11-04T04:19:51;4.70;;;1.08;;
14235;SDS011;7202;50.718;7.072;2022-11-04T04:22:23;2.65;;;1.25;;
14235;SDS011;7202;50.718;7.072;2022-11-04T04:24:55;3.38;;;1.20;;
14235;SDS011;7202;50.718;7.072;2022-11-04T04:27:46;3.00;;;1.00;;
14235;SDS011;7202;50.718;7.072;2022-11-04T04:30:17;2.80;;;1.10;;
14235;SDS011;7202;50.718;7.072;2022-11-04T04:32:47;3.05;;;1.25;;
14235;SDS011;7202;50.718;7.072;2022-11-04T04:35:20;3.28;;;1.38;;
14235;SDS011;7202;50.718;7.072;2022-11-04T04:38:13;3.45;;;1.13;;
14235;SDS011;7202;50.718;7.072;2022-11-04T04:41:04;4.43;;;1.52;;
14235;SDS011;7202;50.718;7.072;2022-11-04T04:43:56;2.60;;;0.90;;
14235;SDS011;7202;50.718;7.072;2022-11-04T04:46:42;2.55;;;1.08;;
14235;SDS011;7202;50.718;7.072;2022-11-04T04:49:14;3.25;;;1.10;;
14235;SDS011;7202;50.718;7.072;2022-11-04T04:51:43;4.50;;;1.02;;
14235;SDS011;7202;50.718;7.072;2022-11-04T04:54:14;1.90;;;1.02;;
14235;SDS011;7202;50.718;7.072;2022-11-04T04:56:42;2.45;;;1.13;;
14235;SDS011;7202;50.718;7.072;2022-11-04T04:59:11;4.78;;;1.05;;
14235;SDS011;7202;50.718;7.072;2022-11-04T05:01:39;4.78;;;1.77;;
14235;SDS011;7202;50.718;7.072;2022-11-04T05:04:08;2.22;;;1.00;;
14235;SDS011;7202;50.718;7.072;2022-11-04T05:06:38;5.15;;;1.50;;
14235;SDS011;7202;50.718;7.072;2022-11-04T05:09:07;3.88;;;1.50;;
14235;SDS011;7202;50.718;7.072;2022-11-04T05:11:35;2.38;;;1.13;;
14235;SDS011;7202;50.718;7.072;2022-11-04T05:14:04;5.30;;;1.38;;
14235;SDS011;7202;50.718;7.072;2022-11-04T05:16:32;1.98;;;1.00;;
14235;SDS011;7202;50.718;7.072;2022-11-04T05:19:06;3.55;;;1.00;;
14235;SDS011;7202;50.718;7.072;2022-11-04T05:21:35;3.08;;;1.42;;
14235;SDS011;7202;50.718;7.072;2022-11-04T05:24:05;5.25;;;1.10;;
14235;SDS011;7202;50.718;7.072;2022-11-04T05:26:34;1.65;;;1.05;;
14235;SDS011;7202;50.718;7.072;2022-11-04T05:29:04;3.47;;;1.38;;
14235;SDS011;7202;50.718;7.072;2022-11-04T05:31:33;3.08;;;1.35;;
14235;SDS011;7202;50.718;7.072;2022-11-04T05:34:01;2.97;;;1.30;;
14235;SDS011;7202;50.718;7.072;2022-11-04T05:36:31;2.65;;;1.20;;
14235;SDS011;7202;50.718;7.072;2022-11-04T05:39:00;2.88;;;1.33;;
14235;SDS011;7202;50.718;7.072;2022-11-04T05:41:30;2.78;;;1.48;;
14235;SDS011;7202;50.718;7.072;2022-11-04T05:43:59;4.13;;;1.50;;
14235;SDS011;7202;50.718;7.072;2022-11-04T05:46:29;4.63;;;2.22;;
14235;SDS011;7202;50.718;7.072;2022-11-04T05:48:58;3.13;;;1.80;;
14235;SDS011;7202;50.718;7.072;2022-11-04T05:51:27;4.10;;;1.58;;
14235;SDS011;7202;50.718;7.072;2022-11-04T05:53:57;2.75;;;1.25;;
14235;SDS011;7202;50.718;7.072;2022-11-04T05:56:25;4.90;;;1.60;;
14235;SDS011;7202;50.718;7.072;2022-11-04T05:58:55;4.53;;;1.80;;
14235;SDS011;7202;50.718;7.072;2022-11-04T06:01:26;3.67;;;1.70;;
14235;SDS011;7202;50.718;7.072;2022-11-04T06:03:59;4.60;;;1.73;;
14235;SDS011;7202;50.718;7.072;2022-11-04T06:06:29;4.72;;;2.58;;
14235;SDS011;7202;50.718;7.072;2022-11-04T06:08:59;5.72;;;1.45;;
14235;SDS011;7202;50.718;7.072;2022-11-04T06:11:28;4.97;;;1.80;;
14235;SDS011;7202;50.718;7.072;2022-11-04T06:13:58;3.00;;;1.80;;
14235;SDS011;7202;50.718;7.072;2022-11-04T06:16:27;2.50;;;1.55;;
14235;SDS011;7202;50.718;7.072;2022-11-04T06:18:55;3.15;;;1.70;;
14235;SDS011;7202;50.718;7.072;2022-11-04T06:21:32;4.80;;;1.67;;
14235;SDS011;7202;50.718;7.072;2022-11-04T06:24:00;3.55;;;1.80;;
14235;SDS011;7202;50.718;7.072;2022-11-04T06:26:29;3.30;;;1.77;;
14235;SDS011;7202;50.718;7.072;2022-11-04T06:28:59;6.03;;;3.85;;
14235;SDS011;7202;50.718;7.072;2022-11-04T06:31:27;4.78;;;1.90;;
14235;SDS011;7202;50.718;7.072;2022-11-04T06:33:56;3.45;;;2.10;;
14235;SDS011;7202;50.718;7.072;2022-11-04T06:36:24;2.67;;;1.85;;
14235;SDS011;7202;50.718;7.072;2022-11-04T06:38:53;3.92;;;2.53;;
14235;SDS011;7202;50.718;7.072;2022-11-04T06:41:30;4.80;;;2.25;;
14235;SDS011;7202;50.718;7.072;2022-11-04T06:44:00;6.32;;;3.95;;
14235;SDS011;7202;50.718;7.072;2022-11-04T06:46:30;2.80;;;2.58;;
14235;SDS011;7202;50.718;7.072;2022-11-04T06:49:02;5.28;;;3.10;;
14235;SDS011;7202;50.718;7.072;2022-11-04T06:51:32;4.72;;;2.50;;
14235;SDS011;7202;50.718;7.072;2022-11-04T06:54:01;6.63;;;2.58;;
14235;SDS011;7202;50.718;7.072;2022-11-04T06:56:29;5.68;;;2.53;;
14235;SDS011;7202;50.718;7.072;2022-11-04T06:58:59;5.20;;;2.40;;
14235;SDS011;7202;50.718;7.072;2022-11-04T07:01:28;3.38;;;1.88;;
14235;SDS011;7202;50.718;7.072;2022-11-04T07:04:00;7.88;;;2.42;;
14235;SDS011;7202;50.718;7.072;2022-11-04T07:06:31;4.75;;;1.70;;
14235;SDS011;7202;50.718;7.072;2022-11-04T07:09:03;5.85;;;1.90;;
14235;SDS011;7202;50.718;7.072;2022-11-04T07:11:31;6.93;;;2.00;;
14235;SDS011;7202;50.718;7.072;2022-11-04T07:14:01;4.72;;;2.38;;
14235;SDS011;7202;50.718;7.072;2022-11-04T07:16:30;4.30;;;1.95;;
14235;SDS011;7202;50.718;7.072;2022-11-04T07:18:59;4.55;;;2.00;;
14235;SDS011;7202;50.718;7.072;2022-11-04T07:21:27;3.83;;;1.75;;
14235;SDS011;7202;50.718;7.072;2022-11-04T07:23:56;3.53;;;1.92;;
14235;SDS011;7202;50.718;7.072;2022-11-04T07:26:25;7.38;;;2.42;;
14235;SDS011;7202;50.718;7.072;2022-11-04T07:28:53;5.38;;;1.83;;
14235;SDS011;7202;50.718;7.072;2022-11-04T07:31:23;4.90;;;2.05;;
14235;SDS011;7202;50.718;7.072;2022-11-04T07:33:52;6.97;;;2.08;;
14235;SDS011;7202;50.718;7.072;2022-11-04T07:36:21;4.18;;;2.03;;
14235;SDS011;7202;50.718;7.072;2022-11-04T07:38:49;4.75;;;1.65;;
14235;SDS011;7202;50.718;7.072;2022-11-04T07:41:18;3.95;;;2.05;;
14235;SDS011;7202;50.718;7.072;2022-11-04T07:43:47;2.67;;;1.77;;
14235;SDS011;7202;50.718;7.072;2022-11-04T07:46:17;5.25;;;1.92;;
14235;SDS011;7202;50.718;7.072;2022-11-04T07:48:47;4.82;;;2.20;;
14235;SDS011;7202;50.718;7.072;2022-11-04T07:51:17;3.60;;;1.95;;
14235;SDS011;7202;50.718;7.072;2022-11-04T07:53:48;5.13;;;1.98;;
14235;SDS011;7202;50.718;7.072;2022-11-04T07:56:17;3.70;;;1.75;;
14235;SDS011;7202;50.718;7.072;2022-11-04T07:58:45;7.93;;;2.55;;
14235;SDS011;7202;50.718;7.072;2022-11-04T08:01:15;2.38;;;1.73;;
14235;SDS011;7202;50.718;7.072;2022-11-04T08:03:45;4.18;;;1.70;;
14235;SDS011;7202;50.718;7.072;2022-11-04T08:06:16;2.45;;;1.80;;
14235;SDS011;7202;50.718;7.072;2022-11-04T08:08:46;5.25;;;2.10;;
14235;SDS011;7202;50.718;7.072;2022-11-04T08:11:15;4.75;;;2.10;;
14235;SDS011;7202;50.718;7.072;2022-11-04T08:13:45;5.55;;;2.30;;
14235;SDS011;7202;50.718;7.072;2022-11-04T08:16:14;6.97;;;2.10;;
14235;SDS011;7202;50.718;7.072;2022-11-04T08:18:48;3.03;;;1.98;;
14235;SDS011;7202;50.718;7.072;2022-11-04T08:21:18;4.32;;;2.30;;
14235;SDS011;7202;50.718;7.072;2022-11-04T08:23:48;5.43;;;2.22;;
14235;SDS011;7202;50.718;7.072;2022-11-04T08:26:17;4.25;;;2.00;;
14235;SDS011;7202;50.718;7.072;2022-11-04T08:28:47;6.55;;;2.13;;
14235;SDS011;7202;50.718;7.072;2022-11-04T08:31:16;5.30;;;2.67;;
14235;SDS011;7202;50.718;7.072;2022-11-04T08:33:48;6.63;;;2.22;;
14235;SDS011;7202;50.718;7.072;2022-11-04T08:36:17;3.97;;;2.20;;
14235;SDS011;7202;50.718;7.072;2022-11-04T08:38:47;3.92;;;2.25;;
14235;SDS011;7202;50.718;7.072;2022-11-04T08:41:17;9.32;;;2.72;;
14235;SDS011;7202;50.718;7.072;2022-11-04T08:43:47;9.10;;;2.63;;
14235;SDS011;7202;50.718;7.072;2022-11-04T08:46:16;4.60;;;2.65;;
14235;SDS011;7202;50.718;7.072;2022-11-04T08:48:45;4.07;;;2.47;;
14235;SDS011;7202;50.718;7.072;2022-11-04T08:51:16;5.53;;;2.83;;
14235;SDS011;7202;50.718;7.072;2022-11-04T08:53:46;6.82;;;2.90;;
14235;SDS011;7202;50.718;7.072;2022-11-04T08:56:16;5.72;;;2.38;;
14235;SDS011;7202;50.718;7.072;2022-11-04T08:58:46;4.70;;;2.25;;
14235;SDS011;7202;50.718;7.072;2022-11-04T09:01:16;4.53;;;1.90;;
14235;SDS011;7202;50.718;7.072;2022-11-04T09:03:48;4.85;;;1.98;;
14235;SDS011;7202;50.718;7.072;2022-11-04T09:06:18;5.53;;;1.85;;
14235;SDS011;7202;50.718;7.072;2022-11-04T09:08:48;7.28;;;2.33;;
14235;SDS011;7202;50.718;7.072;2022-11-04T09:11:18;4.18;;;1.95;;
14235;SDS011;7202;50.718;7.072;2022-11-04T09:13:46;4.50;;;1.70;;
14235;SDS011;7202;50.718;7.072;2022-11-04T09:16:15;3.78;;;1.83;;
14235;SDS011;7202;50.718;7.072;2022-11-04T09:18:43;5.55;;;2.20;;
14235;SDS011;7202;50.718;7.072;2022-11-04T09:21:13;4.18;;;1.92;;
14235;SDS011;7202;50.718;7.072;2022-11-04T09:23:42;4.53;;;2.20;;
14235;SDS011;7202;50.718;7.072;2022-11-04T09:26:13;6.13;;;1.83;;
14235;SDS011;7202;50.718;7.072;2022-11-04T09:28:42;3.25;;;1.65;;
14235;SDS011;7202;50.718;7.072;2022-11-04T09:31:12;3.85;;;1.80;;
14235;SDS011;7202;50.718;7.072;2022-11-04T09:33:41;5.30;;;1.80;;
14235;SDS011;7202;50.718;7.072;2022-11-04T09:36:11;6.15;;;1.90;;
14235;SDS011;7202;50.718;7.072;2022-11-04T09:38:41;6.28;;;2.03;;
14235;SDS011;7202;50.718;7.072;2022-11-04T09:41:18;3.58;;;1.70;;
14235;SDS011;7202;50.718;7.072;2022-11-04T09:43:57;5.57;;;2.30;;
14235;SDS011;7202;50.718;7.072;2022-11-04T09:46:31;3.05;;;1.58;;
14235;SDS011;7202;50.718;7.072;2022-11-04T09:49:01;6.50;;;1.80;;
14235;SDS011;7202;50.718;7.072;2022-11-04T09:51:34;2.33;;;1.30;;
14235;SDS011;7202;50.718;7.072;2022-11-04T09:54:23;3.63;;;1.45;;
14235;SDS011;7202;50.718;7.072;2022-11-04T09:56:54;3.97;;;1.30;;
14235;SDS011;7202;50.718;7.072;2022-11-04T09:59:26;1.83;;;1.10;;
14235;SDS011;7202;50.718;7.072;2022-11-04T10:02:04;4.28;;;1.70;;
14235;SDS011;7202;50.718;7.072;2022-11-04T10:04:51;4.15;;;1.42;;
14235;SDS011;7202;50.718;7.072;2022-11-04T10:07:35;4.05;;;1.38;;
14235;SDS011;7202;50.718;7.072;2022-11-04T10:10:17;3.97;;;1.55;;
14235;SDS011;7202;50.718;7.072;2022-11-04T10:13:07;5.50;;;1.50;;
14235;SDS011;7202;50.718;7.072;2022-11-04T10:15:50;6.95;;;1.50;;
14235;SDS011;7202;50.718;7.072;2022-11-04T10:18:34;6.18;;;1.50;;
14235;SDS011;7202;50.718;7.072;2022-11-04T10:21:18;4.20;;;1.45;;
14235;SDS011;7202;50.718;7.072;2022-11-04T10:23:58;4.78;;;1.50;;
14235;SDS011;7202;50.718;7.072;2022-11-04T10:26:38;3.33;;;1.40;;
14235;SDS011;7202;50.718;7.072;2022-11-04T10:29:12;2.78;;;1.30;;
14235;SDS011;7202;50.718;7.072;2022-11-04T10:31:44;3.65;;;1.40;;
14235;SDS011;7202;50.718;7.072;2022-11-04T10:34:17;5.35;;;1.40;;
14235;SDS011;7202;50.718;7.072;2022-11-04T10:36:54;4.35;;;1.33;;
14235;SDS011;7202;50.718;7.072;2022-11-04T10:39:25;3.35;;;1.48;;
14235;SDS011;7202;50.718;7.072;2022-11-04T10:41:59;2.65;;;1.52;;
14235;SDS011;7202;50.718;7.072;2022-11-04T10:44:30;2.40;;;1.40;;
14235;SDS011;7202;50.718;7.072;2022-11-04T10:47:03;2.75;;;1.30;;
14235;SDS011;7202;50.718;7.072;2022-11-04T10:49:43;2.47;;;1.35;;
14235;SDS011;7202;50.718;7.072;2022-11-04T10:52:46;2.67;;;1.05;;
14235;SDS011;7202;50.718;7.072;2022-11-04T10:55:20;5.13;;;1.30;;
14235;SDS011;7202;50.718;7.072;2022-11-04T10:57:59;3.72;;;1.63;;
14235;SDS011;7202;50.718;7.072;2022-11-04T11:00:32;4.57;;;1.05;;
14235;SDS011;7202;50.718;7.072;2022-11-04T11:03:03;4.72;;;1.40;;
14235;SDS011;7202;50.718;7.072;2022-11-04T11:05:50;4.95;;;1.75;;
14235;SDS011;7202;50.718;7.072;2022-11-04T11:08:27;5.30;;;1.10;;
14235;SDS011;7202;50.718;7.072;2022-11-04T11:12:16;2.03;;;1.10;;
14235;SDS011;7202;50.718;7.072;2022-11-04T11:14:07;2.88;;;1.45;;
14235;SDS011;7202;50.718;7.072;2022-11-04T11:20:00;3.40;;;1.30;;
14235;SDS011;7202;50.718;7.072;2022-11-04T11:22:34;1.75;;;1.00;;
14235;SDS011;7202;50.718;7.072;2022-11-04T11:25:21;2.22;;;1.17;;
14235;SDS011;7202;50.718;7.072;2022-11-04T11:30:56;2.90;;;1.05;;
14235;SDS011;7202;50.718;7.072;2022-11-04T11:36:40;3.78;;;1.10;;
14235;SDS011;7202;50.718;7.072;2022-11-04T11:39:13;4.82;;;1.73;;
14235;SDS011;7202;50.718;7.072;2022-11-04T11:42:05;2.85;;;1.02;;
14235;SDS011;7202;50.718;7.072;2022-11-04T11:44:38;5.32;;;1.25;;
14235;SDS011;7202;50.718;7.072;2022-11-04T11:47:38;1.45;;;0.93;;
14235;SDS011;7202;50.718;7.072;2022-11-04T11:53:25;2.45;;;1.20;;
14235;SDS011;7202;50.718;7.072;2022-11-04T11:55:58;2.03;;;1.10;;
14235;SDS011;7202;50.718;7.072;2022-11-04T11:59:28;1.70;;;0.77;;
14235;SDS011;7202;50.718;7.072;2022-11-04T12:02:24;2.63;;;1.00;;
14235;SDS011;7202;50.718;7.072;2022-11-04T12:05:00;1.98;;;0.75;;
14235;SDS011;7202;50.718;7.072;2022-11-04T12:07:49;3.90;;;1.45;;
14235;SDS011;7202;50.718;7.072;2022-11-04T12:10:44;3.90;;;1.00;;
14235;SDS011;7202;50.718;7.072;2022-11-04T12:13:19;2.85;;;1.20;;
14235;SDS011;7202;50.718;7.072;2022-11-04T12:16:00;3.90;;;1.17;;
14235;SDS011;7202;50.718;7.072;2022-11-04T12:18:48;3.03;;;0.90;;
14235;SDS011;7202;50.718;7.072;2022-11-04T12:24:31;4.97;;;1.25;;
14235;SDS011;7202;50.718;7.072;2022-11-04T12:30:05;2.90;;;1.10;;
14235;SDS011;7202;50.718;7.072;2022-11-04T12:32:51;1.48;;;0.80;;
14235;SDS011;7202;50.718;7.072;2022-11-04T12:35:35;2.47;;;1.00;;
14235;SDS011;7202;50.718;7.072;2022-11-04T12:38:17;3.05;;;1.30;;
14235;SDS011;7202;50.718;7.072;2022-11-04T12:41:00;3.65;;;1.23;;
14235;SDS011;7202;50.718;7.072;2022-11-04T12:43:58;4.57;;;1.30;;
14235;SDS011;7202;50.718;7.072;2022-11-04T12:46:39;2.30;;;1.27;;
14235;SDS011;7202;50.718;7.072;2022-11-04T12:52:37;4.43;;;1.20;;
14235;SDS011;7202;50.718;7.072;2022-11-04T12:55:21;1.92;;;0.90;;
14235;SDS011;7202;50.718;7.072;2022-11-04T12:58:05;1.98;;;0.95;;
14235;SDS011;7202;50.718;7.072;2022-11-04T13:00:40;1.92;;;0.80;;
14235;SDS011;7202;50.718;7.072;2022-11-04T13:03:15;2.67;;;0.90;;
14235;SDS011;7202;50.718;7.072;2022-11-04T13:05:47;3.13;;;1.02;;
14235;SDS011;7202;50.718;7.072;2022-11-04T13:08:22;1.23;;;0.80;;
14235;SDS011;7202;50.718;7.072;2022-11-04T13:10:56;2.53;;;0.90;;
14235;SDS011;7202;50.718;7.072;2022-11-04T13:13:30;3.88;;;0.98;;
14235;SDS011;7202;50.718;7.072;2022-11-04T13:16:03;3.72;;;1.25;;
14235;SDS011;7202;50.718;7.072;2022-11-04T13:18:38;2.25;;;1.00;;
14235;SDS011;7202;50.718;7.072;2022-11-04T13:21:09;1.50;;;0.77;;
14235;SDS011;7202;50.718;7.072;2022-11-04T13:23:44;3.38;;;1.00;;
14235;SDS011;7202;50.718;7.072;2022-11-04T13:26:18;2.28;;;1.08;;
14235;SDS011;7202;50.718;7.072;2022-11-04T13:28:49;2.58;;;1.42;;
14235;SDS011;7202;50.718;7.072;2022-11-04T13:31:36;3.63;;;1.20;;
14235;SDS011;7202;50.718;7.072;2022-11-04T13:34:16;2.67;;;1.35;;
14235;SDS011;7202;50.718;7.072;2022-11-04T13:36:53;2.20;;;1.20;;
14235;SDS011;7202;50.718;7.072;2022-11-04T13:39:33;2.75;;;1.17;;
14235;SDS011;7202;50.718;7.072;2022-11-04T13:45:15;2.90;;;0.90;;
14235;SDS011;7202;50.718;7.072;2022-11-04T13:47:46;2.33;;;0.95;;
14235;SDS011;7202;50.718;7.072;2022-11-04T13:50:28;2.92;;;0.90;;
14235;SDS011;7202;50.718;7.072;2022-11-04T13:53:01;2.42;;;0.90;;
14235;SDS011;7202;50.718;7.072;2022-11-04T13:55:30;4.15;;;0.90;;
14235;SDS011;7202;50.718;7.072;2022-11-04T13:58:01;2.75;;;1.10;;
14235;SDS011;7202;50.718;7.072;2022-11-04T14:00:34;2.25;;;1.23;;
14235;SDS011;7202;50.718;7.072;2022-11-04T14:06:07;2.25;;;1.25;;
14235;SDS011;7202;50.718;7.072;2022-11-04T14:08:36;1.73;;;0.80;;
14235;SDS011;7202;50.718;7.072;2022-11-04T14:14:43;2.15;;;0.88;;
14235;SDS011;7202;50.718;7.072;2022-11-04T14:20:21;4.22;;;1.08;;
14235;SDS011;7202;50.718;7.072;2022-11-04T14:22:52;1.75;;;1.10;;
14235;SDS011;7202;50.718;7.072;2022-11-04T14:25:24;2.83;;;1.20;;
14235;SDS011;7202;50.718;7.072;2022-11-04T14:27:56;3.38;;;1.30;;
14235;SDS011;7202;50.718;7.072;2022-11-04T14:30:42;6.57;;;2.03;;
14235;SDS011;7202;50.718;7.072;2022-11-04T14:33:19;2.97;;;1.35;;
14235;SDS011;7202;50.718;7.072;2022-11-04T14:36:14;3.90;;;1.50;;
14235;SDS011;7202;50.718;7.072;2022-11-04T14:38:55;3.47;;;1.25;;
14235;SDS011;7202;50.718;7.072;2022-11-04T14:41:32;2.53;;;1.15;;
14235;SDS011;7202;50.718;7.072;2022-11-04T14:44:30;3.55;;;1.02;;
14235;SDS011;7202;50.718;7.072;2022-11-04T14:47:06;2.05;;;1.05;;
14235;SDS011;7202;50.718;7.072;2022-11-04T14:49:45;3.85;;;1.38;;
14235;SDS011;7202;50.718;7.072;2022-11-04T14:52:18;6.55;;;1.48;;
14235;SDS011;7202;50.718;7.072;2022-11-04T14:54:51;6.30;;;1.50;;
14235;SDS011;7202;50.718;7.072;2022-11-04T14:57:27;2.58;;;1.20;;
14235;SDS011;7202;50.718;7.072;2022-11-04T15:00:16;2.83;;;1.10;;
14235;SDS011;7202;50.718;7.072;2022-11-04T15:03:03;2.92;;;1.35;;
14235;SDS011;7202;50.718;7.072;2022-11-04T15:05:37;6.20;;;2.20;;
14235;SDS011;7202;50.718;7.072;2022-11-04T15:08:28;4.30;;;1.60;;
14235;SDS011;7202;50.718;7.072;2022-11-04T15:11:00;4.20;;;1.63;;
14235;SDS011;7202;50.718;7.072;2022-11-04T15:13:32;5.05;;;1.90;;
14235;SDS011;7202;50.718;7.072;2022-11-04T15:16:04;10.23;;;2.17;;
14235;SDS011;7202;50.718;7.072;2022-11-04T15:18:37;6.63;;;1.92;;
14235;SDS011;7202;50.718;7.072;2022-11-04T15:21:07;6.20;;;1.95;;
14235;SDS011;7202;50.718;7.072;2022-11-04T15:23:40;4.18;;;2.08;;
14235;SDS011;7202;50.718;7.072;2022-11-04T15:26:16;5.47;;;1.65;;
14235;SDS011;7202;50.718;7.072;2022-11-04T15:28:56;4.90;;;1.58;;
14235;SDS011;7202;50.718;7.072;2022-11-04T15:31:27;3.45;;;1.50;;
14235;SDS011;7202;50.718;7.072;2022-11-04T15:33:58;5.95;;;1.73;;
14235;SDS011;7202;50.718;7.072;2022-11-04T15:36:30;3.90;;;2.13;;
14235;SDS011;7202;50.718;7.072;2022-11-04T15:39:02;5.57;;;2.78;;
14235;SDS011;7202;50.718;7.072;2022-11-04T15:41:33;6.18;;;4.15;;
14235;SDS011;7202;50.718;7.072;2022-11-04T15:44:23;7.95;;;4.88;;
14235;SDS011;7202;50.718;7.072;2022-11-04T15:46:54;7.68;;;4.60;;
14235;SDS011;7202;50.718;7.072;2022-11-04T15:49:25;7.40;;;4.47;;
14235;SDS011;7202;50.718;7.072;2022-11-04T15:51:57;8.13;;;3.42;;
14235;SDS011;7202;50.718;7.072;2022-11-04T15:54:29;4.68;;;2.65;;
14235;SDS011;7202;50.718;7.072;2022-11-04T15:57:02;4.38;;;2.47;;
14235;SDS011;7202;50.718;7.072;2022-11-04T15:59:38;4.88;;;2.55;;
14235;SDS011;7202;50.718;7.072;2022-11-04T16:02:16;5.45;;;2.40;;
14235;SDS011;7202;50.718;7.072;2022-11-04T16:05:04;5.40;;;2.72;;
14235;SDS011;7202;50.718;7.072;2022-11-04T16:07:35;8.02;;;2.60;;
14235;SDS011;7202;50.718;7.072;2022-11-04T16:10:23;2.97;;;2.15;;
14235;SDS011;7202;50.718;7.072;2022-11-04T16:12:54;3.88;;;2.63;;
14235;SDS011;7202;50.718;7.072;2022-11-04T16:15:33;4.68;;;2.55;;
14235;SDS011;7202;50.718;7.072;2022-11-04T16:18:04;6.35;;;3.47;;
14235;SDS011;7202;50.718;7.072;2022-11-04T16:20:34;4.63;;;3.00;;
14235;SDS011;7202;50.718;7.072;2022-11-04T16:23:03;4.45;;;2.20;;